createdAt,value
2017-05-14T00:02:19.655Z,94.40
2017-05-14T00:04:48.627Z,94.50
2017-05-14T00:07:17.738Z,94.40
2017-05-14T00:09:47.003Z,94.50
2017-05-14T00:12:15.968Z,94.40
2017-05-14T00:14:45.016Z,94.40
2017-05-14T00:17:14.009Z,94.50
2017-05-14T00:19:42.985Z,94.40
2017-05-14T00:22:13.071Z,94.40
2017-05-14T00:24:42.037Z,94.50
2017-05-14T00:27:11.034Z,94.60
2017-05-14T00:29:40.344Z,94.60
2017-05-14T00:32:09.304Z,94.70
2017-05-14T00:34:38.454Z,94.60
2017-05-14T00:37:07.533Z,94.70
2017-05-14T00:39:36.501Z,94.80
2017-05-14T00:42:05.822Z,94.90
2017-05-14T00:44:34.799Z,94.80
2017-05-14T00:47:03.728Z,94.80
2017-05-14T00:49:33.437Z,94.80
2017-05-14T00:52:03.065Z,94.80
2017-05-14T00:54:32.344Z,94.90
2017-05-14T00:57:02.082Z,95.00
2017-05-14T00:59:31.071Z,95.20
2017-05-14T01:02:00.069Z,95.30
2017-05-14T01:04:29.038Z,95.40
2017-05-14T01:06:58.289Z,95.50
2017-05-14T01:09:27.262Z,95.50
2017-05-14T01:11:56.235Z,95.60
2017-05-14T01:14:25.589Z,95.70
2017-05-14T01:16:54.545Z,95.70
2017-05-14T01:19:23.528Z,95.60
2017-05-14T01:21:52.523Z,95.50
2017-05-14T01:24:21.494Z,95.40
2017-05-14T01:26:50.830Z,95.30
2017-05-14T01:29:19.804Z,95.30
2017-05-14T01:31:48.788Z,95.20
2017-05-14T01:34:17.776Z,95.20
2017-05-14T01:36:46.750Z,95.20
2017-05-14T01:39:15.990Z,95.20
2017-05-14T01:41:44.947Z,95.30
2017-05-14T01:44:13.901Z,95.50
2017-05-14T01:46:43.884Z,95.70
2017-05-14T01:49:12.860Z,95.70
2017-05-14T01:51:41.831Z,95.70
2017-05-14T01:54:10.816Z,95.70
2017-05-14T01:56:39.781Z,95.60
2017-05-14T01:59:09.873Z,95.40
2017-05-14T02:01:38.844Z,95.20
2017-05-14T02:04:07.810Z,95.00
2017-05-14T02:06:36.788Z,94.80
2017-05-14T02:09:05.831Z,94.70
2017-05-14T02:11:35.132Z,94.80
2017-05-14T02:14:04.116Z,94.70
2017-05-14T02:16:33.069Z,94.70
2017-05-14T02:19:02.357Z,94.80
2017-05-14T02:21:31.348Z,94.80
2017-05-14T02:24:00.314Z,95.00
2017-05-14T02:26:29.605Z,95.00
2017-05-14T02:28:58.561Z,95.10
2017-05-14T02:31:27.524Z,95.20
2017-05-14T02:33:56.769Z,95.30
2017-05-14T02:36:25.749Z,95.30
2017-05-14T02:38:54.707Z,95.40
2017-05-14T02:41:23.996Z,95.40
2017-05-14T02:43:52.967Z,95.50
2017-05-14T02:46:22.682Z,95.50
2017-05-14T02:48:52.747Z,95.60
2017-05-14T02:51:21.715Z,95.60
2017-05-14T02:53:50.694Z,95.60
2017-05-14T02:56:19.668Z,95.60
2017-05-14T02:58:49.408Z,95.70
2017-05-14T03:01:18.764Z,95.80
2017-05-14T03:03:47.736Z,95.80
2017-05-14T03:06:16.684Z,95.70
2017-05-14T03:08:45.686Z,95.70
2017-05-14T03:11:14.648Z,95.70
2017-05-14T03:13:44.633Z,95.80
2017-05-14T03:16:14.360Z,95.70
2017-05-14T03:18:44.456Z,95.70
2017-05-14T03:21:13.431Z,95.80
2017-05-14T03:23:42.404Z,95.80
2017-05-14T03:26:11.686Z,95.80
2017-05-14T03:28:40.651Z,95.80
2017-05-14T03:31:10.359Z,95.70
2017-05-14T03:33:40.445Z,95.70
2017-05-14T03:36:09.424Z,95.70
2017-05-14T03:38:38.388Z,95.70
2017-05-14T03:41:07.279Z,95.70
2017-05-14T03:43:36.305Z,95.70
2017-05-14T03:46:05.718Z,95.60
2017-05-14T03:48:34.673Z,95.60
2017-05-14T03:51:03.649Z,95.60
2017-05-14T03:53:32.919Z,95.60
2017-05-14T03:56:02.680Z,95.60
2017-05-14T03:58:31.649Z,95.60
2017-05-14T04:01:01.033Z,95.60
2017-05-14T04:03:30.028Z,95.70
2017-05-14T04:05:58.996Z,95.60
2017-05-14T04:08:28.324Z,95.70
2017-05-14T04:10:57.308Z,95.60
2017-05-14T04:13:26.288Z,95.60
2017-05-14T04:15:55.280Z,95.50
2017-05-14T04:18:24.237Z,95.50
2017-05-14T04:20:53.542Z,95.50
2017-05-14T04:23:22.523Z,95.60
2017-05-14T04:25:51.481Z,95.70
2017-05-14T04:28:20.592Z,95.80
2017-05-14T04:30:49.541Z,95.70
2017-05-14T04:33:18.891Z,95.80
2017-05-14T04:35:47.863Z,95.80
2017-05-14T04:38:16.814Z,95.90
2017-05-14T04:40:46.179Z,95.90
2017-05-14T04:43:15.147Z,95.90
2017-05-14T04:45:44.120Z,95.80
2017-05-14T04:48:13.111Z,95.80
2017-05-14T04:50:42.066Z,95.70
2017-05-14T04:53:12.056Z,95.70
2017-05-14T04:55:40.272Z,95.70
2017-05-14T04:58:09.245Z,95.90
2017-05-14T05:00:39.329Z,96.00
2017-05-14T05:03:08.304Z,96.00
2017-05-14T05:05:37.268Z,96.00
2017-05-14T05:08:06.253Z,95.80
2017-05-14T05:10:35.134Z,95.80
2017-05-14T05:13:04.518Z,95.80
2017-05-14T05:15:34.232Z,95.80
2017-05-14T05:18:04.319Z,95.90
2017-05-14T05:20:33.343Z,96.30
2017-05-14T05:23:03.055Z,97.40
2017-05-14T05:25:32.033Z,96.60
2017-05-14T05:28:01.662Z,96.00
2017-05-14T05:30:31.016Z,95.60
2017-05-14T05:33:00.034Z,95.20
2017-05-14T05:35:29.721Z,94.60
2017-05-14T05:37:58.682Z,94.70
2017-05-14T05:40:27.637Z,94.70
2017-05-14T05:42:57.703Z,94.70
2017-05-14T05:45:26.671Z,94.90
2017-05-14T05:47:55.657Z,95.10
2017-05-14T05:50:24.736Z,94.90
2017-05-14T05:52:53.733Z,94.90
2017-05-14T05:55:23.060Z,94.60
2017-05-14T05:57:52.020Z,93.80
2017-05-14T06:00:20.990Z,93.80
2017-05-14T06:02:50.722Z,93.20
2017-05-14T06:05:19.753Z,93.10
2017-05-14T06:07:49.059Z,92.70
2017-05-14T06:10:17.973Z,92.90
2017-05-14T06:12:47.682Z,93.10
2017-05-14T06:15:17.754Z,93.30
2017-05-14T06:17:46.721Z,93.40
2017-05-14T06:20:15.717Z,93.50
2017-05-14T06:22:44.739Z,93.40
2017-05-14T06:25:13.700Z,93.80
2017-05-14T06:27:43.025Z,93.90
2017-05-14T06:30:11.995Z,93.50
2017-05-14T06:32:40.993Z,93.20
2017-05-14T06:35:10.312Z,92.80
2017-05-14T06:37:39.230Z,93.10
2017-05-14T06:40:08.956Z,93.20
2017-05-14T06:42:37.933Z,93.10
2017-05-14T06:45:07.663Z,92.70
2017-05-14T06:47:36.913Z,92.70
2017-05-14T06:50:05.904Z,92.30
2017-05-14T06:52:34.868Z,92.10
2017-05-14T06:55:03.862Z,92.40
2017-05-14T06:57:32.835Z,92.80
2017-05-14T07:00:02.167Z,93.00
2017-05-14T07:02:31.131Z,92.80
2017-05-14T07:05:00.093Z,92.40
2017-05-14T07:07:29.078Z,92.10
2017-05-14T07:09:58.773Z,91.40
2017-05-14T07:12:28.510Z,91.30
2017-05-14T07:14:57.469Z,91.10
2017-05-14T07:17:26.790Z,91.10
2017-05-14T07:19:56.504Z,91.30
2017-05-14T07:22:25.478Z,91.00
2017-05-14T07:24:54.842Z,90.80
2017-05-14T07:27:23.785Z,90.90
2017-05-14T07:29:52.741Z,90.70
2017-05-14T07:32:22.135Z,90.50
2017-05-14T07:34:51.052Z,89.70
2017-05-14T07:37:20.803Z,88.90
2017-05-14T07:39:49.773Z,89.10
2017-05-14T07:42:18.783Z,89.60
2017-05-14T07:44:47.846Z,90.00
2017-05-14T07:47:16.806Z,89.20
2017-05-14T07:49:46.071Z,88.30
2017-05-14T07:52:15.039Z,88.00
2017-05-14T07:54:44.005Z,87.60
2017-05-14T07:57:13.751Z,89.20
2017-05-14T07:59:42.739Z,89.30
2017-05-14T08:02:12.069Z,87.80
2017-05-14T08:04:41.055Z,87.30
2017-05-14T08:07:09.977Z,85.50
2017-05-14T08:09:39.351Z,85.00
2017-05-14T08:12:08.306Z,86.00
2017-05-14T08:14:37.269Z,85.40
2017-05-14T08:17:06.262Z,85.20
2017-05-14T08:19:36.030Z,85.60
2017-05-14T08:22:05.226Z,84.90
2017-05-14T08:24:34.203Z,84.10
2017-05-14T08:27:03.187Z,85.20
2017-05-14T08:29:32.436Z,84.70
2017-05-14T08:32:02.145Z,85.00
2017-05-14T08:34:32.266Z,84.80
2017-05-14T08:37:01.978Z,84.60
2017-05-14T08:39:31.705Z,85.50
2017-05-14T08:42:00.996Z,85.00
2017-05-14T08:44:29.998Z,84.90
2017-05-14T08:46:58.888Z,84.70
2017-05-14T08:49:27.949Z,83.90
2017-05-14T08:51:58.237Z,83.00
2017-05-14T08:54:27.244Z,81.00
2017-05-14T08:56:56.333Z,81.00
2017-05-14T08:59:25.297Z,80.80
2017-05-14T09:01:54.255Z,80.80
2017-05-14T09:04:23.602Z,80.10
2017-05-14T09:06:52.579Z,80.30
2017-05-14T09:09:21.522Z,81.10
2017-05-14T09:11:51.261Z,80.40
2017-05-14T09:14:20.232Z,80.00
2017-05-14T09:16:50.223Z,80.00
2017-05-14T09:19:19.257Z,79.90
2017-05-14T09:21:48.226Z,79.90
2017-05-14T09:24:17.246Z,79.80
2017-05-14T09:26:46.223Z,78.80
2017-05-14T09:29:15.490Z,78.50
2017-05-14T09:31:44.499Z,77.60
2017-05-14T09:34:14.231Z,77.70
2017-05-14T09:36:43.220Z,78.50
2017-05-14T09:39:12.197Z,78.70
2017-05-14T09:41:41.461Z,78.30
2017-05-14T09:44:10.438Z,78.20
2017-05-14T09:46:39.411Z,76.60
2017-05-14T09:49:08.720Z,75.80
2017-05-14T09:51:37.691Z,74.80
2017-05-14T09:54:07.496Z,75.00
2017-05-14T09:56:36.806Z,74.20
2017-05-14T09:59:05.772Z,71.40
2017-05-14T10:01:34.756Z,70.40
2017-05-14T10:04:03.739Z,70.10
2017-05-14T10:06:33.440Z,69.00
2017-05-14T10:09:02.747Z,67.90
2017-05-14T10:11:31.726Z,67.00
2017-05-14T10:14:01.449Z,68.30
2017-05-14T10:16:30.433Z,70.00
2017-05-14T10:19:00.128Z,70.40
2017-05-14T10:21:29.433Z,70.80
2017-05-14T10:23:59.169Z,71.30
2017-05-14T10:26:28.122Z,72.60
2017-05-14T10:28:57.414Z,73.00
2017-05-14T10:31:26.383Z,73.30
2017-05-14T10:33:55.327Z,72.70
2017-05-14T10:36:24.631Z,73.00
2017-05-14T10:38:53.603Z,73.30
2017-05-14T10:41:23.317Z,72.50
2017-05-14T10:43:53.053Z,72.10
2017-05-14T10:46:22.202Z,71.50
2017-05-14T10:48:51.178Z,70.20
2017-05-14T10:51:20.174Z,69.10
2017-05-14T10:53:49.189Z,69.00
2017-05-14T10:56:18.912Z,69.00
2017-05-14T10:58:48.183Z,69.40
2017-05-14T11:01:17.145Z,70.30
2017-05-14T11:03:46.116Z,70.50
2017-05-14T11:06:15.140Z,69.20
2017-05-14T11:08:44.095Z,70.20
2017-05-14T11:11:13.412Z,69.80
2017-05-14T11:13:42.398Z,66.80
2017-05-14T11:16:11.396Z,65.40
2017-05-14T11:18:40.380Z,64.40
2017-05-14T11:21:09.365Z,62.70
2017-05-14T11:23:38.695Z,60.90
2017-05-14T11:26:07.644Z,59.30
2017-05-14T11:28:36.629Z,58.40
2017-05-14T11:31:05.986Z,59.60
2017-05-14T11:33:35.010Z,61.60
2017-05-14T11:36:03.980Z,61.70
2017-05-14T11:38:33.706Z,61.70
2017-05-14T11:41:02.701Z,61.00
2017-05-14T11:43:32.034Z,59.00
2017-05-14T11:46:01.035Z,57.30
2017-05-14T11:48:30.006Z,56.50
2017-05-14T11:50:59.282Z,56.00
2017-05-14T11:53:28.247Z,55.10
2017-05-14T11:55:57.956Z,54.40
2017-05-14T11:58:27.971Z,53.50
2017-05-14T12:00:57.706Z,53.80
2017-05-14T12:03:26.669Z,50.20
2017-05-14T12:05:56.386Z,50.70
2017-05-14T12:08:26.089Z,52.30
2017-05-14T12:10:55.827Z,53.00
2017-05-14T12:13:24.784Z,54.10
2017-05-14T12:15:54.871Z,52.90
2017-05-14T12:18:23.821Z,53.40
2017-05-14T12:20:52.787Z,53.40
2017-05-14T12:23:22.521Z,53.00
2017-05-14T12:25:51.491Z,53.10
2017-05-14T12:28:21.468Z,53.10
2017-05-14T12:30:50.433Z,52.20
2017-05-14T12:33:19.405Z,52.50
2017-05-14T12:35:48.752Z,53.20
2017-05-14T12:38:17.728Z,54.10
2017-05-14T12:40:46.713Z,51.20
2017-05-14T12:43:15.688Z,50.00
2017-05-14T12:45:44.632Z,48.00
2017-05-14T12:48:14.368Z,47.40
2017-05-14T12:50:43.329Z,47.10
2017-05-14T12:53:12.606Z,47.50
2017-05-14T12:55:41.523Z,48.20
2017-05-14T12:58:11.234Z,47.70
2017-05-14T13:00:41.311Z,46.50
2017-05-14T13:03:10.277Z,45.00
2017-05-14T13:05:39.265Z,44.70
2017-05-14T13:08:08.237Z,44.80
2017-05-14T13:10:37.939Z,44.00
2017-05-14T13:13:07.950Z,44.80
2017-05-14T13:15:37.674Z,44.40
2017-05-14T13:18:06.689Z,43.30
2017-05-14T13:20:36.137Z,42.30
2017-05-14T13:23:05.123Z,42.30
2017-05-14T13:25:34.080Z,42.10
2017-05-14T13:28:03.082Z,43.30
2017-05-14T13:30:32.036Z,45.20
2017-05-14T13:33:01.002Z,46.70
2017-05-14T13:35:30.745Z,48.40
2017-05-14T13:38:00.063Z,48.00
2017-05-14T13:40:29.026Z,46.90
2017-05-14T13:42:57.999Z,45.00
2017-05-14T13:45:27.997Z,44.70
2017-05-14T13:47:56.973Z,46.90
2017-05-14T13:50:26.145Z,48.60
2017-05-14T13:52:55.120Z,49.30
2017-05-14T13:55:24.124Z,50.70
2017-05-14T13:57:53.457Z,50.80
2017-05-14T14:00:22.421Z,52.00
2017-05-14T14:02:51.391Z,53.60
2017-05-14T14:05:20.729Z,54.20
2017-05-14T14:07:49.724Z,55.60
2017-05-14T14:10:18.705Z,57.40
2017-05-14T14:12:47.662Z,59.00
2017-05-14T14:15:16.611Z,60.30
2017-05-14T14:17:45.879Z,61.30
2017-05-14T14:20:14.847Z,62.50
2017-05-14T14:22:43.828Z,63.50
2017-05-14T14:25:13.070Z,65.00
2017-05-14T14:27:42.034Z,67.60
2017-05-14T14:30:10.994Z,69.80
2017-05-14T14:32:40.037Z,71.80
2017-05-14T14:35:08.896Z,71.50
2017-05-14T14:37:37.898Z,72.60
2017-05-14T14:40:06.870Z,73.40
2017-05-14T14:42:35.858Z,74.10
2017-05-14T14:45:04.843Z,75.10
2017-05-14T14:47:34.183Z,75.30
2017-05-14T14:50:03.175Z,75.70
2017-05-14T14:52:32.160Z,76.80
2017-05-14T14:55:01.130Z,77.60
2017-05-14T14:57:30.124Z,78.40
2017-05-14T14:59:59.116Z,78.30
2017-05-14T15:02:28.083Z,78.50
2017-05-14T15:04:57.436Z,79.20
2017-05-14T15:07:26.407Z,78.70
2017-05-14T15:09:55.354Z,78.20
2017-05-14T15:12:24.710Z,77.20
2017-05-14T15:14:53.698Z,76.60
2017-05-14T15:17:22.653Z,75.60
2017-05-14T15:19:51.644Z,73.50
2017-05-14T15:22:20.607Z,71.30
2017-05-14T15:24:50.651Z,69.40
2017-05-14T15:27:19.650Z,69.60
2017-05-14T15:29:48.645Z,68.80
2017-05-14T15:32:17.969Z,69.00
2017-05-14T15:34:46.921Z,67.20
2017-05-14T15:37:15.887Z,64.70
2017-05-14T15:39:45.959Z,61.30
2017-05-14T15:42:14.929Z,58.90
2017-05-14T15:44:43.889Z,56.70
2017-05-14T15:47:13.019Z,57.40
2017-05-14T15:49:41.986Z,57.00
2017-05-14T15:52:10.983Z,55.10
2017-05-14T15:54:39.964Z,54.50
2017-05-14T15:57:09.684Z,56.20
2017-05-14T15:59:38.649Z,57.00
2017-05-14T16:02:08.908Z,57.10
2017-05-14T16:04:37.871Z,57.40
2017-05-14T16:07:07.575Z,58.10
2017-05-14T16:09:37.590Z,58.00
2017-05-14T16:12:06.542Z,57.90
2017-05-14T16:14:35.501Z,58.30
2017-05-14T16:17:04.702Z,58.70
2017-05-14T16:19:33.687Z,58.30
2017-05-14T16:22:02.723Z,57.80
2017-05-14T16:24:31.706Z,57.30
2017-05-14T16:27:00.662Z,58.20
2017-05-14T16:29:30.043Z,58.40
2017-05-14T16:31:59.012Z,58.10
2017-05-14T16:34:28.687Z,58.60
2017-05-14T16:36:58.896Z,57.10
2017-05-14T16:39:27.870Z,57.60
2017-05-14T16:41:57.104Z,58.00
2017-05-14T16:44:26.058Z,57.10
2017-05-14T16:46:55.025Z,58.20
2017-05-14T16:49:24.045Z,58.30
2017-05-14T16:51:53.032Z,59.40
2017-05-14T16:54:22.252Z,59.60
2017-05-14T16:56:51.225Z,60.60
2017-05-14T16:59:20.199Z,61.70
2017-05-14T17:01:49.543Z,63.00
2017-05-14T17:04:18.513Z,64.30
2017-05-14T17:06:47.475Z,65.90
2017-05-14T17:09:16.478Z,67.10
2017-05-14T17:11:45.452Z,68.20
2017-05-14T17:14:14.802Z,69.30
2017-05-14T17:16:43.783Z,70.20
2017-05-14T17:19:12.755Z,71.10
2017-05-14T17:21:41.732Z,71.70
2017-05-14T17:24:10.700Z,72.30
2017-05-14T17:26:40.767Z,72.70
2017-05-14T17:29:09.738Z,73.30
2017-05-14T17:31:38.697Z,74.00
2017-05-14T17:34:08.417Z,74.40
2017-05-14T17:36:37.366Z,75.20
2017-05-14T17:39:06.591Z,75.00
2017-05-14T17:41:36.278Z,75.60
2017-05-14T17:44:05.272Z,77.10
2017-05-14T17:46:34.535Z,76.80
2017-05-14T17:49:03.507Z,77.30
2017-05-14T17:51:32.463Z,77.80
2017-05-14T17:54:02.217Z,78.30
2017-05-14T17:56:31.179Z,79.00
2017-05-14T17:59:00.183Z,80.00
2017-05-14T18:01:29.132Z,80.70
2017-05-14T18:03:59.115Z,81.40
2017-05-14T18:06:28.092Z,82.10
2017-05-14T18:08:57.073Z,82.80
2017-05-14T18:11:26.404Z,83.40
2017-05-14T18:13:55.281Z,83.80
2017-05-14T18:16:24.282Z,84.30
2017-05-14T18:18:53.272Z,84.70
2017-05-14T18:21:22.254Z,85.10
2017-05-14T18:23:51.198Z,85.30
2017-05-14T18:26:20.906Z,85.70
2017-05-14T18:28:50.674Z,86.10
2017-05-14T18:31:19.668Z,86.40
2017-05-14T18:33:48.968Z,86.90
2017-05-14T18:36:17.949Z,87.20
2017-05-14T18:38:46.984Z,87.50
2017-05-14T18:41:17.071Z,87.90
2017-05-14T18:43:46.053Z,88.10
2017-05-14T18:46:15.083Z,88.50
2017-05-14T18:48:44.853Z,88.70
2017-05-14T18:51:13.873Z,89.10
2017-05-14T18:53:42.865Z,89.40
2017-05-14T18:56:11.890Z,89.70
2017-05-14T18:58:41.149Z,90.00
2017-05-14T19:01:10.184Z,90.10
2017-05-14T19:03:39.199Z,90.30
2017-05-14T19:06:08.536Z,90.40
2017-05-14T19:08:37.566Z,90.60
2017-05-14T19:11:06.570Z,90.70
2017-05-14T19:13:35.598Z,90.80
2017-05-14T19:16:04.610Z,90.90
2017-05-14T19:18:34.394Z,90.90
2017-05-14T19:21:03.395Z,91.00
2017-05-14T19:23:32.384Z,91.10
2017-05-14T19:26:01.403Z,91.10
2017-05-14T19:28:31.493Z,91.10
2017-05-14T19:31:00.517Z,91.00
2017-05-14T19:33:30.251Z,90.80
2017-05-14T19:35:59.590Z,90.60
2017-05-14T19:38:28.610Z,90.30
2017-05-14T19:40:58.341Z,90.20
2017-05-14T19:43:27.398Z,90.10
2017-05-14T19:45:56.404Z,90.10
2017-05-14T19:48:25.437Z,90.00
2017-05-14T19:50:54.439Z,90.00
2017-05-14T19:53:23.495Z,90.00
2017-05-14T19:55:52.493Z,90.10
2017-05-14T19:58:21.744Z,90.30
2017-05-14T20:00:50.771Z,90.30
2017-05-14T20:03:19.770Z,90.40
2017-05-14T20:05:49.193Z,90.40
2017-05-14T20:08:18.199Z,90.50
2017-05-14T20:10:47.256Z,90.60
2017-05-14T20:13:16.305Z,90.60
2017-05-14T20:15:45.302Z,90.80
2017-05-14T20:18:14.647Z,90.80
2017-05-14T20:20:43.706Z,91.00
2017-05-14T20:23:26.803Z,91.10
2017-05-14T20:25:55.721Z,91.40
2017-05-14T20:28:25.476Z,91.40
2017-05-14T20:30:54.523Z,91.30
2017-05-14T20:33:24.279Z,91.20
2017-05-14T20:35:53.558Z,91.20
2017-05-14T20:38:22.569Z,91.20
2017-05-14T20:40:51.546Z,91.10
2017-05-14T20:43:20.913Z,90.90
2017-05-14T20:45:50.647Z,90.50
2017-05-14T20:48:19.634Z,90.40
2017-05-14T20:50:48.883Z,90.30
2017-05-14T20:53:17.838Z,90.00
2017-05-14T20:55:46.831Z,89.90
2017-05-14T20:58:16.052Z,89.50
2017-05-14T21:00:44.954Z,89.50
2017-05-14T21:03:14.726Z,89.30
2017-05-14T21:05:44.074Z,89.20
2017-05-14T21:08:13.032Z,89.30
2017-05-14T21:10:42.032Z,89.20
2017-05-14T21:13:11.060Z,89.30
2017-05-14T21:15:40.787Z,89.50
2017-05-14T21:18:10.148Z,89.50
2017-05-14T21:20:39.142Z,89.50
2017-05-14T21:23:08.113Z,89.50
2017-05-14T21:25:37.422Z,89.50
2017-05-14T21:28:06.453Z,89.50
2017-05-14T21:30:36.166Z,89.60
2017-05-14T21:33:05.140Z,89.70
2017-05-14T21:35:34.848Z,89.60
2017-05-14T21:38:04.832Z,89.60
2017-05-14T21:40:33.791Z,89.60
2017-05-14T21:43:02.763Z,89.70
2017-05-14T21:45:31.765Z,89.80
2017-05-14T21:48:00.753Z,89.80
2017-05-14T21:50:29.759Z,89.70
2017-05-14T21:52:58.737Z,89.30
2017-05-14T21:55:27.971Z,89.00
2017-05-14T21:57:56.955Z,88.50
2017-05-14T22:00:25.920Z,88.50
2017-05-14T22:02:55.257Z,88.30
2017-05-14T22:05:24.173Z,88.30
2017-05-14T22:07:53.913Z,88.30
2017-05-14T22:10:22.928Z,88.30
2017-05-14T22:12:51.897Z,88.20
2017-05-14T22:15:21.135Z,88.30
2017-05-14T22:17:50.131Z,88.40
2017-05-14T22:20:19.042Z,88.40
2017-05-14T22:22:48.053Z,88.30
2017-05-14T22:25:17.012Z,88.50
2017-05-14T22:27:46.013Z,88.30
2017-05-14T22:30:15.033Z,88.40
2017-05-14T22:32:44.033Z,88.50
2017-05-14T22:35:12.999Z,88.40
2017-05-14T22:37:42.717Z,88.50
2017-05-14T22:40:11.751Z,88.90
2017-05-14T22:42:40.772Z,88.70
2017-05-14T22:45:10.486Z,88.50
2017-05-14T22:47:40.227Z,88.80
2017-05-14T22:50:09.178Z,89.10
2017-05-14T22:52:39.287Z,89.60
2017-05-14T22:55:08.271Z,90.00
2017-05-14T22:57:37.270Z,90.10
2017-05-14T23:00:06.508Z,90.30
2017-05-14T23:02:35.507Z,90.40
2017-05-14T23:05:04.507Z,90.40
2017-05-14T23:07:33.866Z,90.50
2017-05-14T23:10:03.615Z,90.70
2017-05-14T23:12:32.606Z,90.80
2017-05-14T23:15:01.866Z,91.00
2017-05-14T23:17:30.887Z,91.10
2017-05-14T23:19:59.872Z,91.20
2017-05-14T23:22:29.102Z,91.30
2017-05-14T23:24:58.285Z,91.40
2017-05-14T23:27:27.247Z,91.50
2017-05-14T23:29:56.498Z,91.60
2017-05-14T23:32:25.481Z,91.60
2017-05-14T23:34:54.470Z,91.60
2017-05-14T23:37:23.608Z,91.70
2017-05-14T23:39:52.606Z,91.70
2017-05-14T23:42:22.366Z,91.90
2017-05-14T23:44:51.396Z,92.10
2017-05-14T23:47:20.262Z,92.30
2017-05-14T23:49:50.044Z,92.30
2017-05-14T23:52:19.018Z,92.40
2017-05-14T23:54:48.016Z,92.50
2017-05-14T23:57:16.981Z,92.60
2017-05-14T23:59:45.969Z,92.60
